sensor_id;sensor_type;location;lat;lon;timestamp;P1;durP1;ratioP1;P2;durP2;ratioP2
8640;SDS011;4358;42.100;25.222;2023-05-21T00:00:27;4.97;;;4.47;;
8640;SDS011;4358;42.100;25.222;2023-05-21T00:02:54;9.13;;;5.43;;
8640;SDS011;4358;42.100;25.222;2023-05-21T00:05:22;5.40;;;4.90;;
8640;SDS011;4358;42.100;25.222;2023-05-21T00:07:48;5.33;;;4.83;;
8640;SDS011;4358;42.100;25.222;2023-05-21T00:10:17;5.50;;;4.87;;
8640;SDS011;4358;42.100;25.222;2023-05-21T00:12:44;5.83;;;5.27;;
8640;SDS011;4358;42.100;25.222;2023-05-21T00:15:12;6.73;;;5.63;;
8640;SDS011;4358;42.100;25.222;2023-05-21T00:17:39;5.00;;;4.50;;
8640;SDS011;4358;42.100;25.222;2023-05-21T00:20:07;5.30;;;4.80;;
8640;SDS011;4358;42.100;25.222;2023-05-21T00:22:34;5.40;;;4.90;;
8640;SDS011;4358;42.100;25.222;2023-05-21T00:25:01;5.40;;;4.90;;
8640;SDS011;4358;42.100;25.222;2023-05-21T00:27:29;5.50;;;4.70;;
8640;SDS011;4358;42.100;25.222;2023-05-21T00:29:56;5.70;;;5.13;;
8640;SDS011;4358;42.100;25.222;2023-05-21T00:32:24;5.00;;;4.50;;
8640;SDS011;4358;42.100;25.222;2023-05-21T00:34:51;6.70;;;5.60;;
8640;SDS011;4358;42.100;25.222;2023-05-21T00:37:18;5.57;;;4.80;;
8640;SDS011;4358;42.100;25.222;2023-05-21T00:39:45;6.23;;;5.47;;
8640;SDS011;4358;42.100;25.222;2023-05-21T00:42:12;6.50;;;5.90;;
8640;SDS011;4358;42.100;25.222;2023-05-21T00:44:42;7.03;;;5.30;;
8640;SDS011;4358;42.100;25.222;2023-05-21T00:47:09;5.67;;;5.07;;
8640;SDS011;4358;42.100;25.222;2023-05-21T00:49:39;10.77;;;5.33;;
8640;SDS011;4358;42.100;25.222;2023-05-21T00:52:06;6.77;;;5.20;;
8640;SDS011;4358;42.100;25.222;2023-05-21T00:54:34;6.60;;;5.10;;
8640;SDS011;4358;42.100;25.222;2023-05-21T00:57:01;6.50;;;5.40;;
8640;SDS011;4358;42.100;25.222;2023-05-21T00:59:29;5.87;;;4.80;;
8640;SDS011;4358;42.100;25.222;2023-05-21T01:01:57;6.77;;;5.20;;
8640;SDS011;4358;42.100;25.222;2023-05-21T01:04:29;7.97;;;5.00;;
8640;SDS011;4358;42.100;25.222;2023-05-21T01:06:58;5.73;;;5.17;;
8640;SDS011;4358;42.100;25.222;2023-05-21T01:09:24;6.47;;;4.87;;
8640;SDS011;4358;42.100;25.222;2023-05-21T01:11:52;6.23;;;5.30;;
8640;SDS011;4358;42.100;25.222;2023-05-21T01:14:20;6.70;;;5.10;;
8640;SDS011;4358;42.100;25.222;2023-05-21T01:16:49;7.13;;;5.00;;
8640;SDS011;4358;42.100;25.222;2023-05-21T01:19:17;6.93;;;5.50;;
8640;SDS011;4358;42.100;25.222;2023-05-21T01:21:49;6.67;;;5.10;;
8640;SDS011;4358;42.100;25.222;2023-05-21T01:24:19;7.23;;;5.57;;
8640;SDS011;4358;42.100;25.222;2023-05-21T01:26:46;6.70;;;6.00;;
8640;SDS011;4358;42.100;25.222;2023-05-21T01:29:13;8.17;;;5.90;;
8640;SDS011;4358;42.100;25.222;2023-05-21T01:31:51;7.60;;;5.67;;
8640;SDS011;4358;42.100;25.222;2023-05-21T01:34:25;8.13;;;5.50;;
8640;SDS011;4358;42.100;25.222;2023-05-21T01:37:01;7.53;;;5.17;;
8640;SDS011;4358;42.100;25.222;2023-05-21T01:39:36;5.17;;;4.67;;
8640;SDS011;4358;42.100;25.222;2023-05-21T01:42:06;6.20;;;5.40;;
8640;SDS011;4358;42.100;25.222;2023-05-21T01:44:35;5.50;;;4.77;;
8640;SDS011;4358;42.100;25.222;2023-05-21T01:47:03;5.77;;;4.90;;
8640;SDS011;4358;42.100;25.222;2023-05-21T01:49:31;5.87;;;5.27;;
8640;SDS011;4358;42.100;25.222;2023-05-21T01:51:58;6.10;;;5.50;;
8640;SDS011;4358;42.100;25.222;2023-05-21T01:54:27;8.20;;;5.80;;
8640;SDS011;4358;42.100;25.222;2023-05-21T01:56:55;6.00;;;5.37;;
8640;SDS011;4358;42.100;25.222;2023-05-21T01:59:25;5.53;;;4.93;;
8640;SDS011;4358;42.100;25.222;2023-05-21T02:01:54;5.63;;;5.00;;
8640;SDS011;4358;42.100;25.222;2023-05-21T02:04:20;4.97;;;4.47;;
8640;SDS011;4358;42.100;25.222;2023-05-21T02:06:47;6.53;;;5.43;;
8640;SDS011;4358;42.100;25.222;2023-05-21T02:09:14;7.23;;;5.00;;
8640;SDS011;4358;42.100;25.222;2023-05-21T02:11:41;8.23;;;4.63;;
8640;SDS011;4358;42.100;25.222;2023-05-21T02:14:10;6.27;;;5.17;;
8640;SDS011;4358;42.100;25.222;2023-05-21T02:16:38;5.57;;;5.03;;
8640;SDS011;4358;42.100;25.222;2023-05-21T02:19:06;5.90;;;4.80;;
8640;SDS011;4358;42.100;25.222;2023-05-21T02:21:34;7.00;;;5.83;;
8640;SDS011;4358;42.100;25.222;2023-05-21T02:24:01;6.37;;;5.27;;
8640;SDS011;4358;42.100;25.222;2023-05-21T02:26:28;9.43;;;7.30;;
8640;SDS011;4358;42.100;25.222;2023-05-21T02:28:55;12.03;;;9.53;;
8640;SDS011;4358;42.100;25.222;2023-05-21T02:31:23;11.00;;;7.23;;
8640;SDS011;4358;42.100;25.222;2023-05-21T02:33:50;15.83;;;9.63;;
8640;SDS011;4358;42.100;25.222;2023-05-21T02:36:17;8.90;;;7.20;;
8640;SDS011;4358;42.100;25.222;2023-05-21T02:38:43;6.63;;;5.93;;
8640;SDS011;4358;42.100;25.222;2023-05-21T02:41:10;7.20;;;6.07;;
8640;SDS011;4358;42.100;25.222;2023-05-21T02:43:37;5.43;;;4.93;;
8640;SDS011;4358;42.100;25.222;2023-05-21T02:46:05;6.17;;;4.33;;
8640;SDS011;4358;42.100;25.222;2023-05-21T02:48:33;5.40;;;4.87;;
8640;SDS011;4358;42.100;25.222;2023-05-21T02:51:00;4.77;;;4.30;;
8640;SDS011;4358;42.100;25.222;2023-05-21T02:53:27;9.20;;;4.90;;
8640;SDS011;4358;42.100;25.222;2023-05-21T02:55:54;5.60;;;4.87;;
8640;SDS011;4358;42.100;25.222;2023-05-21T02:58:21;4.93;;;4.43;;
8640;SDS011;4358;42.100;25.222;2023-05-21T03:00:49;5.43;;;4.93;;
8640;SDS011;4358;42.100;25.222;2023-05-21T03:03:16;5.27;;;4.77;;
8640;SDS011;4358;42.100;25.222;2023-05-21T03:05:44;5.47;;;4.63;;
8640;SDS011;4358;42.100;25.222;2023-05-21T03:08:12;5.30;;;4.80;;
8640;SDS011;4358;42.100;25.222;2023-05-21T03:10:39;6.27;;;5.17;;
8640;SDS011;4358;42.100;25.222;2023-05-21T03:13:05;5.67;;;4.40;;
8640;SDS011;4358;42.100;25.222;2023-05-21T03:15:32;5.03;;;4.50;;
8640;SDS011;4358;42.100;25.222;2023-05-21T03:17:59;8.47;;;6.53;;
8640;SDS011;4358;42.100;25.222;2023-05-21T03:20:27;8.40;;;7.17;;
8640;SDS011;4358;42.100;25.222;2023-05-21T03:22:56;9.10;;;7.67;;
8640;SDS011;4358;42.100;25.222;2023-05-21T03:25:24;9.43;;;8.23;;
8640;SDS011;4358;42.100;25.222;2023-05-21T03:27:51;6.27;;;5.60;;
8640;SDS011;4358;42.100;25.222;2023-05-21T03:30:18;6.57;;;4.97;;
8640;SDS011;4358;42.100;25.222;2023-05-21T03:32:45;5.27;;;4.77;;
8640;SDS011;4358;42.100;25.222;2023-05-21T03:35:13;4.90;;;4.33;;
8640;SDS011;4358;42.100;25.222;2023-05-21T03:37:40;5.13;;;4.20;;
8640;SDS011;4358;42.100;25.222;2023-05-21T03:40:09;6.57;;;4.80;;
8640;SDS011;4358;42.100;25.222;2023-05-21T03:42:36;5.17;;;4.67;;
8640;SDS011;4358;42.100;25.222;2023-05-21T03:45:04;5.43;;;4.60;;
8640;SDS011;4358;42.100;25.222;2023-05-21T03:47:32;6.53;;;4.40;;
8640;SDS011;4358;42.100;25.222;2023-05-21T03:50:00;4.87;;;4.27;;
8640;SDS011;4358;42.100;25.222;2023-05-21T03:52:27;4.63;;;4.23;;
8640;SDS011;4358;42.100;25.222;2023-05-21T03:54:53;4.57;;;4.17;;
8640;SDS011;4358;42.100;25.222;2023-05-21T03:57:21;4.97;;;4.03;;
8640;SDS011;4358;42.100;25.222;2023-05-21T03:59:48;4.70;;;4.20;;
8640;SDS011;4358;42.100;25.222;2023-05-21T04:02:15;5.20;;;4.17;;
8640;SDS011;4358;42.100;25.222;2023-05-21T04:04:42;5.80;;;4.53;;
8640;SDS011;4358;42.100;25.222;2023-05-21T04:07:09;5.00;;;4.47;;
8640;SDS011;4358;42.100;25.222;2023-05-21T04:09:39;4.57;;;4.17;;
8640;SDS011;4358;42.100;25.222;2023-05-21T04:12:06;4.90;;;4.27;;
8640;SDS011;4358;42.100;25.222;2023-05-21T04:14:34;5.70;;;4.30;;
8640;SDS011;4358;42.100;25.222;2023-05-21T04:17:02;5.17;;;4.47;;
8640;SDS011;4358;42.100;25.222;2023-05-21T04:19:30;7.67;;;4.27;;
8640;SDS011;4358;42.100;25.222;2023-05-21T04:21:57;5.27;;;4.07;;
8640;SDS011;4358;42.100;25.222;2023-05-21T04:24:24;5.00;;;4.50;;
8640;SDS011;4358;42.100;25.222;2023-05-21T04:26:50;4.70;;;4.20;;
8640;SDS011;4358;42.100;25.222;2023-05-21T04:29:17;6.33;;;4.50;;
8640;SDS011;4358;42.100;25.222;2023-05-21T04:31:46;5.83;;;4.90;;
8640;SDS011;4358;42.100;25.222;2023-05-21T04:34:14;5.60;;;5.00;;
8640;SDS011;4358;42.100;25.222;2023-05-21T04:36:42;6.93;;;4.90;;
8640;SDS011;4358;42.100;25.222;2023-05-21T04:39:09;5.27;;;4.40;;
8640;SDS011;4358;42.100;25.222;2023-05-21T04:41:37;5.83;;;4.67;;
8640;SDS011;4358;42.100;25.222;2023-05-21T04:44:05;6.60;;;5.10;;
8640;SDS011;4358;42.100;25.222;2023-05-21T04:46:32;6.37;;;4.90;;
8640;SDS011;4358;42.100;25.222;2023-05-21T04:49:01;5.10;;;4.63;;
8640;SDS011;4358;42.100;25.222;2023-05-21T04:51:28;5.23;;;4.73;;
8640;SDS011;4358;42.100;25.222;2023-05-21T04:53:55;6.67;;;5.60;;
8640;SDS011;4358;42.100;25.222;2023-05-21T04:56:22;6.67;;;5.10;;
8640;SDS011;4358;42.100;25.222;2023-05-21T04:58:50;5.67;;;5.07;;
8640;SDS011;4358;42.100;25.222;2023-05-21T05:01:18;7.90;;;5.03;;
8640;SDS011;4358;42.100;25.222;2023-05-21T05:03:47;5.83;;;5.33;;
8640;SDS011;4358;42.100;25.222;2023-05-21T05:06:15;5.60;;;4.80;;
8640;SDS011;4358;42.100;25.222;2023-05-21T05:08:44;5.60;;;5.03;;
8640;SDS011;4358;42.100;25.222;2023-05-21T05:11:11;6.00;;;4.93;;
8640;SDS011;4358;42.100;25.222;2023-05-21T05:13:38;7.47;;;5.73;;
8640;SDS011;4358;42.100;25.222;2023-05-21T05:16:06;8.93;;;5.93;;
8640;SDS011;4358;42.100;25.222;2023-05-21T05:18:33;5.30;;;4.80;;
8640;SDS011;4358;42.100;25.222;2023-05-21T05:21:01;6.20;;;5.60;;
8640;SDS011;4358;42.100;25.222;2023-05-21T05:23:29;8.93;;;7.00;;
8640;SDS011;4358;42.100;25.222;2023-05-21T05:25:56;9.70;;;8.10;;
8640;SDS011;4358;42.100;25.222;2023-05-21T05:28:23;10.00;;;8.53;;
8640;SDS011;4358;42.100;25.222;2023-05-21T05:30:50;10.37;;;8.50;;
8640;SDS011;4358;42.100;25.222;2023-05-21T05:33:16;6.30;;;4.83;;
8640;SDS011;4358;42.100;25.222;2023-05-21T05:35:43;4.40;;;4.00;;
8640;SDS011;4358;42.100;25.222;2023-05-21T05:38:10;5.80;;;5.20;;
8640;SDS011;4358;42.100;25.222;2023-05-21T05:40:39;9.50;;;5.23;;
8640;SDS011;4358;42.100;25.222;2023-05-21T05:43:05;8.93;;;4.70;;
8640;SDS011;4358;42.100;25.222;2023-05-21T05:45:32;6.30;;;5.33;;
8640;SDS011;4358;42.100;25.222;2023-05-21T05:47:59;6.53;;;5.87;;
8640;SDS011;4358;42.100;25.222;2023-05-21T05:50:26;7.00;;;6.30;;
8640;SDS011;4358;42.100;25.222;2023-05-21T05:52:53;7.50;;;6.60;;
8640;SDS011;4358;42.100;25.222;2023-05-21T05:55:19;10.37;;;7.30;;
8640;SDS011;4358;42.100;25.222;2023-05-21T05:57:50;7.20;;;6.50;;
8640;SDS011;4358;42.100;25.222;2023-05-21T06:00:17;6.83;;;6.23;;
8640;SDS011;4358;42.100;25.222;2023-05-21T06:02:44;6.67;;;5.73;;
8640;SDS011;4358;42.100;25.222;2023-05-21T06:05:12;6.17;;;5.50;;
8640;SDS011;4358;42.100;25.222;2023-05-21T06:07:39;6.20;;;5.60;;
8640;SDS011;4358;42.100;25.222;2023-05-21T06:10:06;6.00;;;5.30;;
8640;SDS011;4358;42.100;25.222;2023-05-21T06:12:34;6.63;;;4.93;;
8640;SDS011;4358;42.100;25.222;2023-05-21T06:15:02;5.73;;;4.93;;
8640;SDS011;4358;42.100;25.222;2023-05-21T06:17:30;5.53;;;4.77;;
8640;SDS011;4358;42.100;25.222;2023-05-21T06:19:56;6.20;;;5.20;;
8640;SDS011;4358;42.100;25.222;2023-05-21T06:22:23;5.33;;;4.83;;
8640;SDS011;4358;42.100;25.222;2023-05-21T06:24:50;6.53;;;5.20;;
8640;SDS011;4358;42.100;25.222;2023-05-21T06:27:17;5.40;;;4.90;;
8640;SDS011;4358;42.100;25.222;2023-05-21T06:29:44;8.10;;;7.30;;
8640;SDS011;4358;42.100;25.222;2023-05-21T06:32:12;9.27;;;7.13;;
8640;SDS011;4358;42.100;25.222;2023-05-21T06:34:39;8.33;;;7.40;;
8640;SDS011;4358;42.100;25.222;2023-05-21T06:37:05;7.43;;;6.73;;
8640;SDS011;4358;42.100;25.222;2023-05-21T06:39:32;6.47;;;5.77;;
8640;SDS011;4358;42.100;25.222;2023-05-21T06:41:59;7.67;;;5.83;;
8640;SDS011;4358;42.100;25.222;2023-05-21T06:44:26;5.27;;;4.77;;
8640;SDS011;4358;42.100;25.222;2023-05-21T06:46:52;6.43;;;5.00;;
8640;SDS011;4358;42.100;25.222;2023-05-21T06:49:20;6.47;;;4.43;;
8640;SDS011;4358;42.100;25.222;2023-05-21T06:51:47;5.87;;;4.83;;
8640;SDS011;4358;42.100;25.222;2023-05-21T06:54:14;5.97;;;5.10;;
8640;SDS011;4358;42.100;25.222;2023-05-21T06:56:41;5.50;;;5.00;;
8640;SDS011;4358;42.100;25.222;2023-05-21T06:59:08;6.53;;;5.43;;
8640;SDS011;4358;42.100;25.222;2023-05-21T07:01:35;8.50;;;5.43;;
8640;SDS011;4358;42.100;25.222;2023-05-21T07:04:02;5.53;;;5.03;;
8640;SDS011;4358;42.100;25.222;2023-05-21T07:06:31;6.50;;;4.70;;
8640;SDS011;4358;42.100;25.222;2023-05-21T07:08:59;7.93;;;5.77;;
8640;SDS011;4358;42.100;25.222;2023-05-21T07:11:27;11.20;;;6.30;;
8640;SDS011;4358;42.100;25.222;2023-05-21T07:13:55;7.17;;;6.27;;
8640;SDS011;4358;42.100;25.222;2023-05-21T07:16:26;10.33;;;6.67;;
8640;SDS011;4358;42.100;25.222;2023-05-21T07:18:53;7.27;;;6.47;;
8640;SDS011;4358;42.100;25.222;2023-05-21T07:21:20;7.83;;;6.73;;
8640;SDS011;4358;42.100;25.222;2023-05-21T07:23:48;6.97;;;5.83;;
8640;SDS011;4358;42.100;25.222;2023-05-21T07:26:23;6.27;;;5.67;;
8640;SDS011;4358;42.100;25.222;2023-05-21T07:28:51;5.77;;;5.23;;
8640;SDS011;4358;42.100;25.222;2023-05-21T07:31:18;5.07;;;4.57;;
8640;SDS011;4358;42.100;25.222;2023-05-21T07:33:45;5.87;;;4.13;;
8640;SDS011;4358;42.100;25.222;2023-05-21T07:36:12;5.13;;;4.00;;
8640;SDS011;4358;42.100;25.222;2023-05-21T07:38:38;4.57;;;4.03;;
8640;SDS011;4358;42.100;25.222;2023-05-21T07:41:07;4.80;;;4.30;;
8640;SDS011;4358;42.100;25.222;2023-05-21T07:43:34;5.10;;;4.60;;
8640;SDS011;4358;42.100;25.222;2023-05-21T07:46:01;5.83;;;4.90;;
8640;SDS011;4358;42.100;25.222;2023-05-21T07:48:28;7.60;;;5.47;;
8640;SDS011;4358;42.100;25.222;2023-05-21T07:50:55;9.83;;;6.03;;
8640;SDS011;4358;42.100;25.222;2023-05-21T07:53:22;11.30;;;7.07;;
8640;SDS011;4358;42.100;25.222;2023-05-21T07:55:53;7.77;;;6.53;;
8640;SDS011;4358;42.100;25.222;2023-05-21T07:58:21;7.77;;;5.90;;
8640;SDS011;4358;42.100;25.222;2023-05-21T08:00:50;6.97;;;4.57;;
8640;SDS011;4358;42.100;25.222;2023-05-21T08:03:18;4.57;;;4.10;;
8640;SDS011;4358;42.100;25.222;2023-05-21T08:05:45;4.67;;;4.20;;
8640;SDS011;4358;42.100;25.222;2023-05-21T08:08:14;5.63;;;3.80;;
8640;SDS011;4358;42.100;25.222;2023-05-21T08:10:43;7.60;;;4.10;;
8640;SDS011;4358;42.100;25.222;2023-05-21T08:13:10;6.03;;;4.33;;
8640;SDS011;4358;42.100;25.222;2023-05-21T08:15:39;5.97;;;4.30;;
8640;SDS011;4358;42.100;25.222;2023-05-21T08:18:06;5.47;;;3.90;;
8640;SDS011;4358;42.100;25.222;2023-05-21T08:20:32;5.77;;;4.23;;
8640;SDS011;4358;42.100;25.222;2023-05-21T08:22:59;4.43;;;3.80;;
8640;SDS011;4358;42.100;25.222;2023-05-21T08:25:26;4.20;;;3.80;;
8640;SDS011;4358;42.100;25.222;2023-05-21T08:27:53;5.43;;;3.43;;
8640;SDS011;4358;42.100;25.222;2023-05-21T08:30:21;3.57;;;3.27;;
8640;SDS011;4358;42.100;25.222;2023-05-21T08:32:49;3.97;;;3.57;;
8640;SDS011;4358;42.100;25.222;2023-05-21T08:35:16;4.07;;;3.67;;
8640;SDS011;4358;42.100;25.222;2023-05-21T08:37:43;4.97;;;3.60;;
8640;SDS011;4358;42.100;25.222;2023-05-21T08:40:10;4.40;;;3.20;;
8640;SDS011;4358;42.100;25.222;2023-05-21T08:42:42;3.60;;;2.97;;
8640;SDS011;4358;42.100;25.222;2023-05-21T08:45:10;5.17;;;3.50;;
8640;SDS011;4358;42.100;25.222;2023-05-21T08:47:40;4.60;;;3.60;;
8640;SDS011;4358;42.100;25.222;2023-05-21T08:50:11;5.73;;;3.20;;
8640;SDS011;4358;42.100;25.222;2023-05-21T08:52:38;7.07;;;3.77;;
8640;SDS011;4358;42.100;25.222;2023-05-21T08:55:06;3.40;;;3.10;;
8640;SDS011;4358;42.100;25.222;2023-05-21T08:57:36;4.87;;;3.17;;
8640;SDS011;4358;42.100;25.222;2023-05-21T09:00:10;4.43;;;3.60;;
8640;SDS011;4358;42.100;25.222;2023-05-21T09:02:38;3.63;;;3.33;;
8640;SDS011;4358;42.100;25.222;2023-05-21T09:05:08;3.43;;;3.13;;
8640;SDS011;4358;42.100;25.222;2023-05-21T09:07:38;4.47;;;3.40;;
8640;SDS011;4358;42.100;25.222;2023-05-21T09:10:10;3.47;;;3.10;;
8640;SDS011;4358;42.100;25.222;2023-05-21T09:12:38;5.23;;;3.10;;
8640;SDS011;4358;42.100;25.222;2023-05-21T09:15:08;4.27;;;3.10;;
8640;SDS011;4358;42.100;25.222;2023-05-21T09:17:36;4.53;;;3.00;;
8640;SDS011;4358;42.100;25.222;2023-05-21T09:20:11;4.73;;;3.20;;
8640;SDS011;4358;42.100;25.222;2023-05-21T09:22:40;3.63;;;3.20;;
8640;SDS011;4358;42.100;25.222;2023-05-21T09:25:08;3.83;;;2.80;;
8640;SDS011;4358;42.100;25.222;2023-05-21T09:27:36;4.43;;;2.80;;
8640;SDS011;4358;42.100;25.222;2023-05-21T09:30:04;5.30;;;2.90;;
8640;SDS011;4358;42.100;25.222;2023-05-21T09:32:35;5.83;;;2.80;;
8640;SDS011;4358;42.100;25.222;2023-05-21T09:35:05;6.87;;;3.60;;
8640;SDS011;4358;42.100;25.222;2023-05-21T09:37:37;4.20;;;2.83;;
8640;SDS011;4358;42.100;25.222;2023-05-21T09:40:14;5.70;;;3.30;;
8640;SDS011;4358;42.100;25.222;2023-05-21T09:42:42;7.30;;;3.20;;
8640;SDS011;4358;42.100;25.222;2023-05-21T09:45:11;5.47;;;3.03;;
8640;SDS011;4358;42.100;25.222;2023-05-21T09:47:43;3.30;;;3.00;;
8640;SDS011;4358;42.100;25.222;2023-05-21T09:50:11;5.73;;;3.00;;
8640;SDS011;4358;42.100;25.222;2023-05-21T09:52:42;3.87;;;2.77;;
8640;SDS011;4358;42.100;25.222;2023-05-21T09:55:10;4.40;;;3.10;;
8640;SDS011;4358;42.100;25.222;2023-05-21T09:57:41;7.00;;;2.90;;
8640;SDS011;4358;42.100;25.222;2023-05-21T10:00:20;8.80;;;3.03;;
8640;SDS011;4358;42.100;25.222;2023-05-21T10:02:50;6.37;;;3.47;;
8640;SDS011;4358;42.100;25.222;2023-05-21T10:05:20;4.80;;;3.20;;
8640;SDS011;4358;42.100;25.222;2023-05-21T10:07:54;3.17;;;2.87;;
8640;SDS011;4358;42.100;25.222;2023-05-21T10:10:26;4.70;;;3.10;;
8640;SDS011;4358;42.100;25.222;2023-05-21T10:12:55;4.00;;;3.30;;
8640;SDS011;4358;42.100;25.222;2023-05-21T10:15:25;3.93;;;3.10;;
8640;SDS011;4358;42.100;25.222;2023-05-21T10:17:53;6.20;;;3.47;;
8640;SDS011;4358;42.100;25.222;2023-05-21T10:20:21;9.50;;;3.80;;
8640;SDS011;4358;42.100;25.222;2023-05-21T10:22:49;5.33;;;3.30;;
8640;SDS011;4358;42.100;25.222;2023-05-21T10:25:17;4.77;;;3.40;;
8640;SDS011;4358;42.100;25.222;2023-05-21T10:27:45;7.73;;;3.23;;
8640;SDS011;4358;42.100;25.222;2023-05-21T10:30:13;5.90;;;3.40;;
8640;SDS011;4358;42.100;25.222;2023-05-21T10:32:41;3.93;;;3.23;;
8640;SDS011;4358;42.100;25.222;2023-05-21T10:35:08;8.33;;;3.40;;
8640;SDS011;4358;42.100;25.222;2023-05-21T10:37:35;4.50;;;3.30;;
8640;SDS011;4358;42.100;25.222;2023-05-21T10:40:02;4.37;;;2.87;;
8640;SDS011;4358;42.100;25.222;2023-05-21T10:42:44;2.83;;;2.57;;
8640;SDS011;4358;42.100;25.222;2023-05-21T10:45:30;3.40;;;2.83;;
8640;SDS011;4358;42.100;25.222;2023-05-21T10:51:19;3.50;;;3.10;;
8640;SDS011;4358;42.100;25.222;2023-05-21T10:53:58;4.60;;;3.00;;
8640;SDS011;4358;42.100;25.222;2023-05-21T10:56:36;3.00;;;2.70;;
8640;SDS011;4358;42.100;25.222;2023-05-21T10:59:10;4.97;;;2.77;;
8640;SDS011;4358;42.100;25.222;2023-05-21T11:01:46;7.67;;;4.50;;
8640;SDS011;4358;42.100;25.222;2023-05-21T11:04:14;4.93;;;3.37;;
8640;SDS011;4358;42.100;25.222;2023-05-21T11:06:45;5.67;;;3.50;;
8640;SDS011;4358;42.100;25.222;2023-05-21T11:09:14;5.97;;;4.00;;
8640;SDS011;4358;42.100;25.222;2023-05-21T11:11:42;5.30;;;3.60;;
8640;SDS011;4358;42.100;25.222;2023-05-21T11:17:00;4.80;;;4.30;;
8640;SDS011;4358;42.100;25.222;2023-05-21T11:19:33;3.50;;;3.03;;
8640;SDS011;4358;42.100;25.222;2023-05-21T11:22:04;4.83;;;3.10;;
8640;SDS011;4358;42.100;25.222;2023-05-21T11:24:32;3.57;;;3.07;;
8640;SDS011;4358;42.100;25.222;2023-05-21T11:27:04;3.23;;;2.90;;
8640;SDS011;4358;42.100;25.222;2023-05-21T11:29:44;5.23;;;2.70;;
8640;SDS011;4358;42.100;25.222;2023-05-21T11:32:12;7.00;;;3.03;;
8640;SDS011;4358;42.100;25.222;2023-05-21T11:34:42;4.40;;;2.90;;
8640;SDS011;4358;42.100;25.222;2023-05-21T11:37:23;4.47;;;3.00;;
8640;SDS011;4358;42.100;25.222;2023-05-21T11:39:54;5.20;;;2.97;;
8640;SDS011;4358;42.100;25.222;2023-05-21T11:42:31;12.80;;;3.83;;
8640;SDS011;4358;42.100;25.222;2023-05-21T11:45:01;4.40;;;4.00;;
8640;SDS011;4358;42.100;25.222;2023-05-21T11:47:29;4.70;;;3.23;;
8640;SDS011;4358;42.100;25.222;2023-05-21T11:49:57;6.07;;;3.13;;
8640;SDS011;4358;42.100;25.222;2023-05-21T11:52:27;5.83;;;2.80;;
8640;SDS011;4358;42.100;25.222;2023-05-21T11:54:54;6.67;;;2.90;;
8640;SDS011;4358;42.100;25.222;2023-05-21T11:57:23;4.53;;;3.13;;
8640;SDS011;4358;42.100;25.222;2023-05-21T11:59:54;3.93;;;2.93;;
8640;SDS011;4358;42.100;25.222;2023-05-21T12:02:24;7.73;;;4.17;;
8640;SDS011;4358;42.100;25.222;2023-05-21T12:04:52;4.37;;;3.27;;
8640;SDS011;4358;42.100;25.222;2023-05-21T12:07:27;3.40;;;3.10;;
8640;SDS011;4358;42.100;25.222;2023-05-21T12:09:55;4.67;;;2.93;;
8640;SDS011;4358;42.100;25.222;2023-05-21T12:12:24;5.93;;;4.53;;
8640;SDS011;4358;42.100;25.222;2023-05-21T12:14:52;6.63;;;4.63;;
8640;SDS011;4358;42.100;25.222;2023-05-21T12:17:20;4.87;;;3.20;;
8640;SDS011;4358;42.100;25.222;2023-05-21T12:19:50;7.33;;;3.60;;
8640;SDS011;4358;42.100;25.222;2023-05-21T12:22:18;5.57;;;3.17;;
8640;SDS011;4358;42.100;25.222;2023-05-21T12:24:45;7.87;;;4.80;;
8640;SDS011;4358;42.100;25.222;2023-05-21T12:27:12;4.00;;;2.87;;
8640;SDS011;4358;42.100;25.222;2023-05-21T12:29:41;6.03;;;2.83;;
8640;SDS011;4358;42.100;25.222;2023-05-21T12:32:09;3.87;;;3.00;;
8640;SDS011;4358;42.100;25.222;2023-05-21T12:34:37;5.03;;;2.80;;
8640;SDS011;4358;42.100;25.222;2023-05-21T12:37:07;3.07;;;2.77;;
8640;SDS011;4358;42.100;25.222;2023-05-21T12:39:37;4.20;;;2.90;;
8640;SDS011;4358;42.100;25.222;2023-05-21T12:42:08;5.00;;;3.00;;
8640;SDS011;4358;42.100;25.222;2023-05-21T12:44:37;5.40;;;3.00;;
8640;SDS011;4358;42.100;25.222;2023-05-21T12:47:04;4.57;;;3.20;;
8640;SDS011;4358;42.100;25.222;2023-05-21T12:49:32;4.53;;;2.67;;
8640;SDS011;4358;42.100;25.222;2023-05-21T12:52:01;3.90;;;3.10;;
8640;SDS011;4358;42.100;25.222;2023-05-21T12:54:32;3.43;;;2.80;;
8640;SDS011;4358;42.100;25.222;2023-05-21T12:57:10;5.03;;;2.80;;
8640;SDS011;4358;42.100;25.222;2023-05-21T12:59:43;5.87;;;3.17;;
8640;SDS011;4358;42.100;25.222;2023-05-21T13:02:13;4.67;;;3.20;;
8640;SDS011;4358;42.100;25.222;2023-05-21T13:04:53;4.03;;;2.83;;
8640;SDS011;4358;42.100;25.222;2023-05-21T13:07:21;4.93;;;2.63;;
8640;SDS011;4358;42.100;25.222;2023-05-21T13:09:50;5.23;;;3.13;;
8640;SDS011;4358;42.100;25.222;2023-05-21T13:12:17;4.73;;;2.87;;
8640;SDS011;4358;42.100;25.222;2023-05-21T13:14:46;4.40;;;3.20;;
8640;SDS011;4358;42.100;25.222;2023-05-21T13:17:13;4.60;;;3.30;;
8640;SDS011;4358;42.100;25.222;2023-05-21T13:19:40;5.13;;;2.87;;
8640;SDS011;4358;42.100;25.222;2023-05-21T13:22:07;5.27;;;3.00;;
8640;SDS011;4358;42.100;25.222;2023-05-21T13:24:35;4.17;;;2.83;;
8640;SDS011;4358;42.100;25.222;2023-05-21T13:27:05;6.37;;;2.97;;
8640;SDS011;4358;42.100;25.222;2023-05-21T13:29:32;3.50;;;3.00;;
8640;SDS011;4358;42.100;25.222;2023-05-21T13:32:00;5.90;;;3.23;;
8640;SDS011;4358;42.100;25.222;2023-05-21T13:34:27;5.53;;;3.17;;
8640;SDS011;4358;42.100;25.222;2023-05-21T13:36:53;5.17;;;2.93;;
8640;SDS011;4358;42.100;25.222;2023-05-21T13:39:20;4.93;;;3.30;;
8640;SDS011;4358;42.100;25.222;2023-05-21T13:41:51;5.27;;;2.97;;
8640;SDS011;4358;42.100;25.222;2023-05-21T13:44:19;4.83;;;3.17;;
8640;SDS011;4358;42.100;25.222;2023-05-21T13:46:46;8.93;;;3.13;;
8640;SDS011;4358;42.100;25.222;2023-05-21T13:49:13;5.33;;;3.47;;
8640;SDS011;4358;42.100;25.222;2023-05-21T13:51:40;3.20;;;2.90;;
8640;SDS011;4358;42.100;25.222;2023-05-21T13:54:07;3.50;;;3.03;;
8640;SDS011;4358;42.100;25.222;2023-05-21T13:56:34;5.53;;;3.20;;
8640;SDS011;4358;42.100;25.222;2023-05-21T13:59:01;4.23;;;3.30;;
8640;SDS011;4358;42.100;25.222;2023-05-21T14:01:29;3.37;;;2.80;;
8640;SDS011;4358;42.100;25.222;2023-05-21T14:03:56;3.60;;;2.80;;
8640;SDS011;4358;42.100;25.222;2023-05-21T14:06:28;4.07;;;3.00;;
8640;SDS011;4358;42.100;25.222;2023-05-21T14:08:56;4.10;;;2.77;;
8640;SDS011;4358;42.100;25.222;2023-05-21T14:11:23;4.47;;;2.57;;
8640;SDS011;4358;42.100;25.222;2023-05-21T14:13:50;2.90;;;2.60;;
8640;SDS011;4358;42.100;25.222;2023-05-21T14:16:17;5.87;;;3.13;;
8640;SDS011;4358;42.100;25.222;2023-05-21T14:18:45;3.53;;;2.70;;
8640;SDS011;4358;42.100;25.222;2023-05-21T14:21:12;3.63;;;2.80;;
8640;SDS011;4358;42.100;25.222;2023-05-21T14:23:39;3.03;;;2.70;;
8640;SDS011;4358;42.100;25.222;2023-05-21T14:26:05;4.73;;;3.20;;
8640;SDS011;4358;42.100;25.222;2023-05-21T14:28:32;3.43;;;2.90;;
8640;SDS011;4358;42.100;25.222;2023-05-21T14:30:59;4.57;;;3.13;;
8640;SDS011;4358;42.100;25.222;2023-05-21T14:33:26;6.20;;;3.00;;
8640;SDS011;4358;42.100;25.222;2023-05-21T14:35:54;3.47;;;2.90;;
8640;SDS011;4358;42.100;25.222;2023-05-21T14:38:21;6.33;;;3.10;;
8640;SDS011;4358;42.100;25.222;2023-05-21T14:40:48;5.50;;;3.27;;
8640;SDS011;4358;42.100;25.222;2023-05-21T14:43:14;7.53;;;3.30;;
8640;SDS011;4358;42.100;25.222;2023-05-21T14:45:41;4.10;;;3.00;;
8640;SDS011;4358;42.100;25.222;2023-05-21T14:48:08;4.50;;;3.50;;
8640;SDS011;4358;42.100;25.222;2023-05-21T14:50:36;5.50;;;3.00;;
8640;SDS011;4358;42.100;25.222;2023-05-21T14:53:05;3.53;;;3.10;;
8640;SDS011;4358;42.100;25.222;2023-05-21T14:55:33;3.53;;;3.00;;
8640;SDS011;4358;42.100;25.222;2023-05-21T14:58:00;3.67;;;2.73;;
8640;SDS011;4358;42.100;25.222;2023-05-21T15:00:28;3.73;;;2.93;;
8640;SDS011;4358;42.100;25.222;2023-05-21T15:02:55;3.40;;;3.03;;
8640;SDS011;4358;42.100;25.222;2023-05-21T15:05:22;7.23;;;3.07;;
8640;SDS011;4358;42.100;25.222;2023-05-21T15:07:49;4.67;;;3.10;;
8640;SDS011;4358;42.100;25.222;2023-05-21T15:10:17;4.73;;;2.80;;
8640;SDS011;4358;42.100;25.222;2023-05-21T15:12:44;5.43;;;3.10;;